Wetterstation:     Jahr:     Auswahl:
Download: tageswerte-winkel-2021.csv
 
 
Datum
Temp. 2 m
Mittel
[⁰C]
Temp. 2 m
Maximum
[⁰C]
Temp. 2 m
Minimum
[⁰C]
rel. Feuchte
Mittel
[%]
Wind
Mittel
[m/s]
Regen
Summe
[mm]
Strahlung
Summe
[Wh/m²]
Bogrebe
Minimum
[⁰C]
01.01.2021 2,2 3,8 0,9 92,9 0,5 0,4 494,9 0,9
02.01.2021 2,0 3,5 0,4 84,3 0,9 0,0 505,3 0,1
03.01.2021 2,1 3,0 0,9 83,2 1,9 0,1 197,4 0,3
04.01.2021 1,7 2,6 0,6 91,3 0,8 1,2 165,4 0,3
05.01.2021 2,4 3,4 1,5 88,1 0,7 0,2 216,6 1,2
06.01.2021 2,4 4,1 1,2 89,4 0,8 0,9 407,9 1,0
07.01.2021 1,5 3,0 0,5 87,1 1,0 0,2 430,2 -0,4
08.01.2021 1,7 3,2 0,3 88,6 1,4 0,3 824,0 -0,7
09.01.2021 1,0 3,8 -2,3 80,4 1,4 0,0 1142,5 -2,9
10.01.2021 -1,7 4,0 -5,0 85,9 0,5 0,0 1681,2 -6,0
11.01.2021 -1,8 3,7 -7,2 81,5 0,9 0,0 1805,8 -7,9
12.01.2021 2,4 4,6 0,5 89,8 1,6 4,6 302,5 -0,3
13.01.2021 1,4 5,1 -1,9 84,7 1,1 0,0 1213,7 -3,4
14.01.2021 1,7 3,4 -0,1 78,1 1,3 0,2 607,0 -0,4
15.01.2021 0,8 3,3 -1,4 73,9 1,5 0,0 1108,8 -3,2
16.01.2021 -0,6 0,6 -2,8 75,4 1,0 0,0 597,0 -2,9
17.01.2021 -0,9 1,3 -2,8 95,0 0,3 2,7 299,1 -2,9
18.01.2021 2,9 5,2 0,4 88,2 1,3 1,7 734,7 -0,1
19.01.2021 3,3 4,9 0,2 84,7 2,1 0,4 149,1 -0,4
20.01.2021 3,2 6,6 -1,2 82,0 0,8 0,1 723,6 -2,1
21.01.2021 8,3 11,2 3,6 77,2 2,1 4,1 913,6 2,2
22.01.2021 5,8 10,9 2,7 88,3 1,9 6,0 693,5 2,4
23.01.2021 3,1 5,0 -0,2 92,1 0,9 1,3 367,0 -0,9
24.01.2021 1,4 3,1 -1,4 88,5 1,9 6,3 692,1 -1,9
25.01.2021 0,7 2,9 -0,5 91,1 0,6 2,3 834,3 -1,0
26.01.2021 2,2 4,6 -0,4 80,7 1,8 0,0 583,5 -1,0
27.01.2021 0,7 1,7 -0,7 95,7 0,6 4,3 292,7 -1,2
28.01.2021 5,8 12,2 1,4 93,2 1,2 9,8 476,5 1,0
29.01.2021 8,8 11,7 7,1 84,2 2,4 5,8 1212,8 6,6
30.01.2021 3,8 8,1 0,4 92,6 1,8 5,1 376,3 0,3
31.01.2021 0,7 1,3 0,2 87,9 2,2 0,8 440,4 0,0
01.02.2021 2,9 4,8 1,1 97,5 1,3 3,2 478,8 1,0
02.02.2021 6,0 8,4 4,2 96,1 0,7 3,0 537,7 3,9
03.02.2021 9,0 13,1 6,5 95,1 1,4 19,8 547,1 6,1
04.02.2021 7,5 11,3 3,8 80,0 1,3 0,0 1957,0 1,8
05.02.2021 6,0 6,9 4,4 93,7 0,5 5,2 544,8 3,0
06.02.2021 5,5 6,8 3,5 95,2 2,6 11,6 176,0 3,4
07.02.2021 2,4 3,5 -0,3 96,4 2,4 5,5 236,9 -0,3
08.02.2021 -3,0 -0,4 -4,5 88,4 0,0 0,0 651,5 -4,6
09.02.2021 -5,9 -4,4 -8,5 74,6 0,0 0,0 1106,6 -8,7
10.02.2021 -6,5 -3,4 -9,3 69,3 0,0 0,0 2376,4 -9,6
11.02.2021 -3,1 0,2 -6,3 73,7 0,7 0,1 2420,4 -7,2
12.02.2021 -4,3 -1,6 -6,6 66,8 2,9 0,0 2572,2 -7,3
13.02.2021 -4,2 0,3 -7,2 63,8 2,8 0,0 2923,7 -7,4
14.02.2021 -2,2 3,1 -7,0 63,0 1,9 0,0 2841,3 -8,4
15.02.2021 -1,2 0,4 -4,3 72,1 1,1 0,6 659,3 -5,7
16.02.2021 3,6 8,4 0,3 89,8 0,8 2,7 1748,3 0,1
17.02.2021 6,7 12,5 2,0 86,3 1,4 0,1 1655,1 0,7
18.02.2021 3,8 8,2 -0,7 90,8 0,9 0,2 1339,4 -1,4
19.02.2021 5,8 11,3 0,1 85,3 0,8 0,0 2556,8 -0,9
20.02.2021 7,8 15,4 1,4 85,3 0,9 0,0 2734,8 0,0
21.02.2021 8,2 17,1 0,5 77,7 0,8 0,0 3140,7 -1,1
22.02.2021 6,5 12,0 1,2 83,4 0,8 0,0 2259,9 0,0
23.02.2021 10,0 18,7 4,3 80,5 0,7 0,0 2830,9 2,9
24.02.2021 10,4 17,8 4,2 82,9 0,7 0,0 2879,9 2,3
25.02.2021 9,6 19,7 2,9 74,6 0,6 0,0 3180,4 1,1
26.02.2021 6,3 10,0 3,1 86,3 1,7 0,7 550,0 2,3
27.02.2021 5,8 10,5 -0,1 74,6 1,6 0,0 3472,0 -1,3
28.02.2021 5,6 10,8 1,9 69,8 1,8 0,0 3697,2 -0,5
01.03.2021 5,8 12,9 -1,6 71,6 1,3 0,0 3720,2 -3,0
02.03.2021 7,0 14,5 1,2 72,9 0,9 0,0 3696,4 -0,4
03.03.2021 6,7 15,5 0,2 79,3 0,6 0,0 2950,6 -1,0
04.03.2021 7,8 13,5 3,8 80,0 1,6 0,0 2091,2 2,4
05.03.2021 4,0 6,9 0,0 67,9 2,2 0,0 2080,8 -2,8
06.03.2021 1,8 7,6 -4,2 58,3 1,5 0,0 4164,4 -5,8
07.03.2021 2,4 10,2 -4,9 57,9 1,1 0,0 4196,9 -6,8
08.03.2021 2,4 7,8 -3,9 71,8 0,8 0,0 2987,0 -5,4
09.03.2021 3,3 7,4 -0,4 84,9 0,9 0,1 1856,5 -1,2
10.03.2021 6,4 10,2 1,1 78,5 1,1 0,0 1542,5 0,5
11.03.2021 9,1 15,3 4,9 78,1 3,1 3,3 2079,6 4,0
12.03.2021 7,3 10,6 4,4 69,9 3,9 3,8 2798,6 4,2
13.03.2021 6,5 9,8 4,3 82,9 3,0 4,1 2027,2 3,6
14.03.2021 4,8 9,4 1,5 79,8 2,0 2,5 2101,1 0,5
15.03.2021 5,3 9,3 1,8 83,5 2,3 6,6 3104,4 0,8
16.03.2021 5,6 8,2 3,8 78,0 1,7 0,9 2438,8 3,5
17.03.2021 4,4 7,5 0,2 76,5 1,6 2,5 2016,4 -0,6
18.03.2021 3,3 7,9 -1,7 74,2 1,2 0,4 4028,6 -3,3
19.03.2021 3,1 6,6 -0,2 75,7 2,4 0,7 3178,4 -1,8
20.03.2021 3,8 8,4 -0,9 57,6 1,2 0,0 4634,9 -1,5
21.03.2021 5,9 9,2 3,6 68,6 2,3 0,1 2607,8 3,3
22.03.2021 5,5 7,5 2,1 74,8 1,5 0,0 1540,4 0,8
23.03.2021 6,2 10,9 1,4 71,2 1,4 0,0 2462,2 0,2
24.03.2021 6,7 16,0 -1,8 74,4 0,8 0,0 5025,6 -2,8
25.03.2021 8,6 16,4 0,9 73,3 1,3 0,0 3852,6 -0,4
26.03.2021 10,6 16,8 3,4 70,0 1,4 0,0 4545,9 2,7
27.03.2021 7,0 10,5 2,7 72,6 2,9 1,8 3567,9 2,1
28.03.2021 9,0 15,8 2,1 68,7 1,8 0,1 4515,2 1,3
29.03.2021 12,1 22,5 3,5 56,7 1,1 0,0 5363,3 2,2
30.03.2021 12,7 24,1 2,5 55,7 0,8 0,0 5576,6 0,7
31.03.2021 14,0 25,6 3,7 58,9 0,8 0,0 5433,5 1,7
01.04.2021 15,1 23,6 6,6 59,9 1,7 0,0 4848,7 4,9
02.04.2021 8,3 13,5 4,4 62,8 2,1 0,0 4168,6 3,8
03.04.2021 8,2 13,2 2,5 54,3 1,8 0,0 5458,6 0,9
04.04.2021 6,9 11,8 2,0 64,4 1,8 0,0 5664,3 0,5
05.04.2021 3,3 7,5 0,2 75,3 2,4 2,0 1817,4 -0,8
06.04.2021 2,9 6,9 0,1 66,1 3,4 0,1 4925,9 -0,3
07.04.2021 2,5 5,1 -0,1 70,8 2,6 0,9 2242,2 -0,4
08.04.2021 4,0 9,8 -1,2 61,4 1,7 0,0 4692,9 -1,9
09.04.2021 8,4 17,0 -2,3 57,6 1,4 0,1 5234,1 -3,3
10.04.2021 9,5 10,8 8,4 88,3 1,0 4,2 1074,9 8,1
11.04.2021 7,5 14,0 3,8 88,7 2,2 3,7 1936,5 3,6
12.04.2021 4,2 8,5 -0,5 76,6 1,5 0,8 4117,4 -1,3
13.04.2021 4,4 10,1 -0,8 68,1 1,7 0,1 4644,0 -1,6
14.04.2021 4,5 9,5 -0,5 64,1 1,4 0,0 4001,0 -1,3
15.04.2021 4,8 10,2 -2,0 64,7 1,5 0,0 4687,0 -3,1
16.04.2021 5,7 9,0 2,1 64,8 1,6 0,0 3167,7 1,0
17.04.2021 7,7 12,7 1,7 60,6 1,7 0,0 4891,1 0,5
18.04.2021 8,5 12,2 6,9 76,9 0,8 2,6 1341,8 6,1
19.04.2021 9,6 15,3 4,7 78,6 0,8 0,2 2942,4 3,5
20.04.2021 10,3 18,6 1,6 69,8 1,0 0,0 6689,2 0,3
21.04.2021 11,6 18,9 3,1 65,2 1,2 0,0 4373,2 1,1
22.04.2021 9,8 15,2 2,9 54,4 1,8 0,0 6877,8 1,6
23.04.2021 9,7 18,3 0,8 54,7 1,1 0,0 7196,4 -0,7
24.04.2021 10,5 18,2 1,7 56,9 1,3 0,0 6967,5 0,3
25.04.2021 10,5 16,4 5,7 48,7 2,0 0,0 7387,2 4,4
26.04.2021 9,9 15,8 4,9 41,0 2,3 0,0 7523,6 4,2
27.04.2021 10,9 17,7 5,1 39,6 1,9 0,0 7342,1 4,2
28.04.2021 11,8 21,2 1,7 60,3 1,3 7,0 6245,2 0,2
29.04.2021 10,9 16,7 3,1 73,4 2,4 4,6 4735,3 2,0
30.04.2021 7,4 12,0 1,4 72,6 0,9 0,0 3473,1 0,4
01.05.2021 9,7 15,3 2,3 63,3 1,2 0,0 3926,3 1,4
02.05.2021 8,9 12,6 3,1 56,7 2,4 0,0 5230,0 0,6
03.05.2021 8,3 14,3 0,0 62,0 1,5 0,0 5397,3 -1,3
04.05.2021 9,6 13,7 5,5 69,3 3,2 0,2 1976,8 4,1
05.05.2021 7,1 12,5 3,6 73,3 2,6 1,5 4349,1 2,8
06.05.2021 6,5 11,1 1,6 85,4 1,3 3,2 2217,3 1,0
07.05.2021 7,8 12,6 3,3 70,1 1,9 1,9 6387,1 2,5
08.05.2021 10,1 17,7 0,1 64,9 1,2 0,0 5532,8 -0,8
09.05.2021 18,3 28,8 6,7 57,7 1,7 0,0 6848,0 5,0
10.05.2021 16,0 19,8 12,6 78,5 1,3 7,2 1391,6 12,4
11.05.2021 13,5 15,1 12,1 92,4 1,0 4,7 1642,4 11,8
12.05.2021 13,6 19,6 8,5 76,8 1,4 0,0 4587,7 7,0
13.05.2021 12,7 19,3 5,5 75,0 1,4 0,0 5658,4 4,4
14.05.2021 12,6 18,8 6,4 71,7 1,4 1,6 5597,8 5,3
15.05.2021 11,4 14,8 7,8 79,4 1,9 2,0 3093,0 6,9
16.05.2021 11,5 18,5 6,3 82,5 1,5 5,8 4963,5 5,6
17.05.2021 11,3 16,3 7,6 86,2 1,6 5,4 4120,5 7,0
18.05.2021 11,1 15,1 6,8 82,0 1,6 1,4 5002,8 6,1
19.05.2021 11,8 17,1 6,7 75,6 2,0 2,0 6449,2 6,4
20.05.2021 12,8 17,5 7,5 71,7 1,4 0,1 4762,7 6,9
21.05.2021 13,5 17,8 8,8 65,4 2,4 4,1 4491,6 8,1
22.05.2021 11,7 16,3 8,0 73,4 2,7 0,7 3752,4 7,2
23.05.2021 11,7 17,5 5,7 70,3 2,1 0,0 5093,6 5,0
24.05.2021 11,8 20,2 5,0 75,9 1,5 0,9 5027,0 3,9
25.05.2021 9,9 14,3 8,2 81,6 2,4 3,3 2687,5 7,7
26.05.2021 10,1 14,3 5,8 88,9 1,4 6,4 2727,8 5,0
27.05.2021 11,0 14,6 6,1 83,1 2,1 1,0 3472,4 5,4
28.05.2021 13,6 19,4 8,9 68,6 1,3 0,0 5453,0 8,3
29.05.2021 15,1 22,0 6,0 60,9 1,3 0,0 6753,9 4,9
30.05.2021 15,8 22,0 6,8 59,3 1,7 0,0 8308,2 5,8
31.05.2021 16,8 23,2 7,8 53,5 1,4 0,0 8628,0 6,2
01.06.2021 18,1 25,1 8,4 51,9 1,6 0,0 8661,8 6,5
02.06.2021 20,0 28,4 8,6 52,9 1,1 0,0 8449,6 7,5
03.06.2021 20,4 28,0 13,8 72,0 0,9 0,0 5784,8 13,2
04.06.2021 20,5 29,3 14,8 80,0 1,1 10,8 6245,2 14,2
05.06.2021 18,4 23,4 13,8 88,0 1,0 0,8 3844,2 13,3
06.06.2021 16,8 18,9 15,1 84,7 2,7 0,1 5409,4 14,9
07.06.2021 17,8 21,1 15,9 83,0 1,2 2,3 2840,8 15,1
08.06.2021 19,6 25,0 14,1 77,0 0,8 0,0 4826,6 13,3
09.06.2021 21,9 27,6 14,2 66,5 1,0 0,0 6640,4 13,5
10.06.2021 22,7 28,6 15,3 57,7 1,2 0,0 7860,4 13,8
11.06.2021 22,7 29,9 12,7 61,6 1,0 0,0 7077,9 11,6
12.06.2021 21,0 25,9 15,0 65,4 1,6 0,0 6026,7 13,7
13.06.2021 18,6 25,6 11,0 58,2 1,2 0,0 8695,6 10,5
14.06.2021 20,1 28,7 9,9 59,2 1,0 0,0 8716,4 9,1
15.06.2021 22,5 30,9 11,8 62,5 0,9 0,0 7118,3 11,1
16.06.2021 24,4 32,8 15,6 63,4 1,0 0,0 7953,6 15,0
17.06.2021 26,3 34,1 16,9 61,0 1,0 0,0 7900,4 15,5
18.06.2021 27,4 34,7 17,6 61,5 0,9 0,1 6785,6 16,5
19.06.2021 27,3 33,2 20,1 57,7 1,2 0,0 7855,8 18,5
20.06.2021 24,9 29,0 18,8 64,7 1,4 2,7 6219,5 18,5
21.06.2021 21,1 27,4 17,0 73,9 2,1 0,1 7131,4 16,7
22.06.2021 16,8 19,7 13,0 84,3 0,7 2,5 2532,0 12,4
23.06.2021 20,0 25,3 14,3 76,4 1,2 0,0 5672,0 13,9
24.06.2021 17,6 19,2 16,5 91,0 0,7 12,4 1689,0 16,2
25.06.2021 18,2 23,6 13,3 77,9 1,0 1,1 4088,4 12,8
26.06.2021 19,9 27,0 11,7 69,0 0,7 0,0 8124,5 11,1
27.06.2021 22,1 27,5 15,6 69,2 0,9 0,0 5205,5 14,3
28.06.2021 23,2 30,0 15,7 69,8 0,9 0,0 6943,9 15,1
29.06.2021 19,2 26,7 14,2 84,6 1,0 12,8 4220,6 13,7
30.06.2021 16,0 20,8 12,1 87,1 1,2 1,4 2945,4 11,6
01.07.2021 15,9 18,3 14,2 79,9 1,1 0,0 2418,3 14,0
02.07.2021 18,5 25,0 11,6 71,5 1,0 0,0 6976,4 11,0
03.07.2021 20,9 28,1 11,8 67,4 0,9 0,0 7665,1 11,1
04.07.2021 19,0 24,6 14,1 83,5 0,7 14,6 4098,8 13,6
05.07.2021 18,0 22,9 13,7 91,1 0,6 7,2 3284,8 13,2
06.07.2021 17,7 21,0 15,0 88,5 0,9 8,8 2280,6 14,3
07.07.2021 19,0 25,9 13,2 76,3 0,8 0,0 6683,8 12,8
08.07.2021 18,0 23,2 13,2 83,0 1,1 0,1 3678,3 12,8
09.07.2021 18,4 23,0 14,0 81,6 1,0 1,9 3281,0 13,5
10.07.2021 19,4 26,8 12,2 78,0 0,8 7,3 6422,9 11,7
11.07.2021 18,8 25,1 14,7 81,5 0,7 0,0 4540,7 14,2
12.07.2021 20,3 27,0 12,7 78,0 0,8 1,4 4780,8 12,3
13.07.2021 18,5 21,8 16,0 96,3 0,7 16,6 1438,7 16,0
14.07.2021 16,5 18,0 14,5 94,4 0,8 5,2 890,1 14,3
15.07.2021 19,1 25,9 15,8 85,7 0,6 3,5 4742,0 15,4
16.07.2021 19,0 22,0 15,4 87,2 2,2 6,6 5692,9 15,0
17.07.2021 20,5 26,0 15,9 80,4 1,7 0,0 6063,9 15,4
18.07.2021 22,4 28,7 13,6 67,9 1,5 0,0 8053,4 12,9
19.07.2021 21,3 26,4 14,5 67,5 1,4 0,0 7311,9 13,7
20.07.2021 19,0 26,4 11,3 70,2 0,8 0,0 7188,3 10,9
21.07.2021 19,7 27,2 11,1 64,2 0,8 0,0 7810,3 10,7
22.07.2021 19,8 27,9 11,7 69,7 0,8 0,0 6942,6 11,3
23.07.2021 21,0 28,4 12,1 67,8 0,9 0,0 7767,3 11,7
24.07.2021 19,4 24,4 14,3 83,0 0,8 6,6 3844,3 13,8
25.07.2021 20,3 28,4 15,2 82,3 0,7 1,0 6105,1 14,7
26.07.2021 20,9 27,6 14,4 76,6 1,1 1,0 6732,5 14,0
27.07.2021 19,1 25,5 14,3 81,7 1,0 1,7 4529,6 13,9
28.07.2021 18,7 24,8 13,1 81,1 1,2 0,2 4400,4 12,7
29.07.2021 18,6 23,6 13,4 71,0 1,4 0,0 6441,4 12,6
30.07.2021 19,8 27,7 10,8 67,5 1,3 0,0 7392,9 10,2
31.07.2021 18,7 23,5 12,2 65,9 1,6 0,0 5354,4 11,4
01.08.2021 18,6 24,4 13,9 68,3 1,3 0,0 5731,7 13,3
02.08.2021 16,4 22,8 11,4 83,2 0,9 6,4 5098,5 10,7
03.08.2021 15,7 21,4 12,3 90,3 0,8 9,4 3138,8 11,9
04.08.2021 16,8 21,8 11,9 84,3 0,5 0,4 3954,9 11,4
05.08.2021 18,8 24,6 12,7 79,0 0,7 0,0 5290,8 12,3
06.08.2021 17,8 23,8 13,2 83,6 1,2 5,0 4211,5 12,7
07.08.2021 17,0 22,1 12,3 86,9 0,7 1,8 2918,0 11,9
08.08.2021 15,8 19,9 11,6 84,5 1,2 2,7 3708,3 11,1
09.08.2021 16,4 22,8 10,3 78,7 0,9 0,3 4407,6 9,9
10.08.2021 18,2 25,1 11,4 77,9 1,0 0,0 5065,0 11,0
11.08.2021 20,3 28,9 12,6 75,5 0,7 0,0 6503,3 12,0
12.08.2021 21,7 29,8 13,3 74,2 0,5 0,0 5575,3 12,8
13.08.2021 22,9 30,8 15,8 74,6 0,9 0,0 5086,7 15,3
14.08.2021 22,8 31,0 14,2 68,5 0,9 0,0 6407,2 13,8
15.08.2021 21,8 30,7 12,8 66,6 0,7 0,0 6194,5 12,2
16.08.2021 17,6 23,0 10,6 75,1 1,8 2,2 3533,1 9,8
17.08.2021 14,2 19,9 9,3 81,8 1,1 3,4 3377,9 8,7
18.08.2021 17,5 21,9 13,9 81,4 1,1 0,0 3255,9 13,7
19.08.2021 18,5 22,9 15,6 82,6 0,9 0,0 2640,1 15,4
20.08.2021 18,8 25,0 13,3 76,6 0,9 0,0 4914,6 12,5
21.08.2021 20,6 28,5 13,3 74,4 0,7 2,0 5817,7 12,8
22.08.2021 18,6 24,1 14,1 85,5 1,0 2,0 3826,1 13,6
23.08.2021 17,7 23,5 12,5 82,3 0,7 0,7 3492,2 11,8
24.08.2021 17,5 21,7 11,3 66,0 1,4 0,0 4932,3 10,4
25.08.2021 17,8 25,2 10,0 68,3 0,9 0,0 6177,1 9,2
26.08.2021 16,8 20,4 13,2 72,7 1,6 0,2 4740,0 12,7
27.08.2021 15,0 19,1 10,0 81,2 1,6 2,1 2811,9 9,1
28.08.2021 15,6 20,0 11,8 84,0 0,8 0,6 2638,9 11,2
29.08.2021 15,4 16,7 14,3 89,3 1,4 1,6 1325,9 14,0
30.08.2021 17,7 21,4 15,3 79,3 1,5 0,0 2364,1 15,0
31.08.2021 16,7 21,3 11,4 77,6 1,4 0,0 3372,1 10,5
01.09.2021 16,0 22,4 10,1 77,0 1,1 0,0 3762,0 9,4
02.09.2021 16,8 24,8 8,3 74,3 1,1 0,0 5726,0 7,6
03.09.2021 18,2 27,2 9,6 70,8 1,0 0,0 5881,7 9,2
04.09.2021 18,5 27,9 9,2 70,3 0,9 0,0 5764,7 8,7
05.09.2021 19,4 28,6 11,5 70,9 0,8 0,0 5518,3 11,0
06.09.2021 20,1 28,8 11,5 69,5 0,8 0,0 5328,3 11,0
07.09.2021 19,2 27,8 12,2 70,9 0,6 0,0 4654,0 11,9
08.09.2021 19,7 27,5 11,7 69,1 1,1 0,0 5418,1 11,3
09.09.2021 19,7 27,2 11,9 77,1 0,8 0,0 4051,1 11,5
10.09.2021 19,4 23,8 16,3 88,4 0,6 14,9 2405,8 15,8
11.09.2021 18,6 24,3 13,1 86,3 0,7 9,8 3357,1 12,5
12.09.2021 17,2 24,5 10,8 77,6 0,8 0,0 4703,4 10,4
13.09.2021 17,0 24,5 9,7 78,3 0,7 0,0 4664,7 9,2
14.09.2021 18,4 25,2 11,1 82,8 0,5 0,0 3583,6 10,6
15.09.2021 18,9 22,5 16,1 94,0 0,7 8,2 1484,2 15,8
16.09.2021 16,7 20,2 11,7 80,7 0,9 0,0 2539,6 11,0
17.09.2021 14,9 21,6 9,7 85,9 0,6 0,0 2777,6 9,2
18.09.2021 15,8 23,5 8,4 80,6 0,7 0,0 4346,2 7,9
19.09.2021 15,4 20,6 11,0 79,2 1,2 0,0 4471,3 10,5
20.09.2021 13,9 16,6 12,3 77,8 0,7 0,0 1881,4 12,2
21.09.2021 13,7 18,7 7,9 66,4 1,0 0,0 4446,5 7,6
22.09.2021 12,3 21,4 5,4 80,6 0,6 0,0 4210,9 5,0
23.09.2021 14,3 25,1 5,0 76,9 1,0 0,0 4617,3 4,7
24.09.2021 16,0 22,0 10,9 79,5 1,1 0,0 2999,2 10,0
25.09.2021 16,0 25,0 8,2 79,2 0,6 0,7 4511,2 7,8
26.09.2021 15,9 19,9 11,1 93,9 0,4 4,5 1387,4 10,6
27.09.2021 16,3 21,0 13,1 91,8 0,8 2,0 1605,9 12,9
28.09.2021 13,0 18,9 8,5 83,9 0,6 0,0 3377,6 7,6
29.09.2021 11,6 16,7 5,7 83,8 1,0 3,1 2374,1 5,4
30.09.2021 10,1 16,9 3,5 80,5 0,8 0,0 3534,0 2,8
01.10.2021 11,5 20,2 4,4 77,6 0,7 0,0 3993,7 4,0
02.10.2021 15,3 20,5 10,7 77,7 0,8 0,0 1993,1 10,4
03.10.2021 17,6 21,4 12,7 74,7 1,2 0,1 894,3 12,4
04.10.2021 13,1 17,6 10,3 85,5 0,7 0,0 1896,1 9,7
05.10.2021 12,7 17,7 8,3 90,0 0,6 5,0 1557,6 7,8
06.10.2021 11,3 13,9 8,4 86,4 1,1 0,5 1370,7 8,0
07.10.2021 11,6 17,9 6,7 88,8 0,6 1,3 2144,7 6,1
08.10.2021 11,8 18,1 4,8 81,9 1,1 0,0 3284,0 4,4
09.10.2021 11,3 18,0 5,0 75,6 1,1 0,0 3803,3 4,5
10.10.2021 8,2 17,3 1,3 80,8 0,7 0,0 3335,6 0,9
11.10.2021 8,3 16,0 1,5 87,0 0,9 0,0 1843,4 1,1
12.10.2021 9,9 12,5 6,1 91,4 1,0 11,6 1106,8 5,3
13.10.2021 8,9 13,5 5,4 85,7 1,0 0,0 1806,3 4,5
14.10.2021 10,1 16,2 5,9 87,2 0,8 0,0 1812,4 5,3
15.10.2021 8,5 15,8 3,2 90,7 0,7 0,1 1752,3 2,5
16.10.2021 7,6 16,0 1,4 86,4 0,5 0,1 3014,7 0,9
17.10.2021 8,3 14,4 3,6 85,2 0,5 0,0 2337,9 3,1
18.10.2021 6,7 11,9 2,7 95,2 0,5 0,0 1054,8 2,6
19.10.2021 8,8 14,7 5,4 98,3 0,3 9,1 991,7 5,0
20.10.2021 12,8 18,7 5,8 93,5 0,8 0,2 1064,8 5,3
21.10.2021 11,6 15,8 3,6 76,2 3,0 4,9 1943,7 2,8
22.10.2021 7,6 12,4 2,0 80,6 1,6 0,3 2545,8 1,4
23.10.2021 7,5 12,5 2,2 88,8 0,6 0,0 1440,4 1,7
24.10.2021 5,3 13,9 -0,5 87,8 0,7 0,1 2841,5 -0,7
25.10.2021 4,2 12,3 -1,1 96,0 0,4 0,1 1577,0 -1,4
26.10.2021 10,7 16,6 5,2 85,5 0,8 0,1 1890,5 4,4
27.10.2021 10,2 17,4 5,2 90,0 0,4 0,0 2172,0 4,3
28.10.2021 6,8 8,1 3,9 99,6 0,5 0,1 446,5 3,6
29.10.2021 6,9 9,8 3,9 97,8 0,7 0,0 784,9 3,1
30.10.2021 6,5 8,6 4,1 98,6 0,5 1,6 522,2 3,0
31.10.2021 11,8 16,0 6,0 94,3 0,6 0,6 1110,0 5,3
01.11.2021 10,1 14,6 4,0 88,6 1,0 1,5 1492,1 3,3
02.11.2021 6,7 8,8 4,3 98,8 0,4 6,9 679,9 3,7
03.11.2021 7,1 8,9 4,2 99,0 0,6 11,2 248,8 3,7
04.11.2021 7,4 9,3 6,3 89,9 1,0 0,6 625,3 6,0
05.11.2021 7,3 10,8 4,6 88,5 0,8 0,5 1097,8 3,8
06.11.2021 6,5 12,9 1,7 92,1 0,8 0,0 2039,1 0,9
07.11.2021 6,2 9,0 3,9 91,7 1,4 0,0 634,9 3,0
08.11.2021 6,7 10,5 2,6 88,4 0,6 0,0 1387,6 1,0
09.11.2021 6,5 11,4 1,7 83,9 0,8 0,0 2070,0 0,5
10.11.2021 2,3 7,6 -1,1 93,9 0,6 0,1 1342,9 -1,9
11.11.2021 1,0 3,3 -1,7 99,3 0,5 0,1 782,0 -2,4
12.11.2021 1,7 1,9 1,4 100,0 0,6 0,2 314,1 1,4
13.11.2021 3,6 6,3 1,5 99,5 0,4 6,4 372,2 1,5
14.11.2021 8,0 10,2 5,7 93,7 0,9 0,1 568,8 4,8
15.11.2021 8,0 8,8 7,3 83,8 1,6 0,0 242,9 7,1
16.11.2021 6,4 7,5 5,2 89,8 0,6 0,0 231,2 5,1
17.11.2021 6,2 8,4 4,8 90,7 0,9 0,4 682,9 4,2
18.11.2021 5,5 10,3 1,7 92,2 0,8 0,0 1358,8 0,6
19.11.2021 8,2 10,3 5,4 92,2 0,7 0,0 627,6 5,1
20.11.2021 7,8 10,9 3,2 92,3 0,4 0,1 702,6 2,3
21.11.2021 6,3 7,9 5,3 94,8 0,6 0,0 544,4 5,2
22.11.2021 5,3 7,8 -0,9 77,5 2,1 0,0 883,1 -2,3
23.11.2021 2,7 9,1 -3,2 80,1 0,4 0,0 1587,5 -4,1
24.11.2021 4,1 6,0 2,2 87,2 0,7 0,0 631,5 0,1
25.11.2021 2,4 4,2 -0,2 85,0 0,5 0,0 435,5 -0,9
26.11.2021 2,2 4,4 -0,6 89,9 1,2 2,6 421,5 -1,1
27.11.2021 2,9 6,1 0,5 87,9 0,9 1,1 1119,1 -0,5
28.11.2021 2,5 3,8 1,6 92,4 0,8 1,0 368,5 1,4
29.11.2021 2,2 4,2 0,5 88,0 1,5 1,8 553,3 0,2
30.11.2021 4,9 7,6 2,2 87,1 2,6 4,1 193,1 2,1
01.12.2021 6,6 8,6 3,3 87,6 2,6 1,8 260,3 1,3
02.12.2021 3,2 5,6 -0,6 87,6 1,2 4,4 689,2 -1,4
03.12.2021 0,9 2,8 -3,2 87,0 1,4 0,1 547,4 -4,1
04.12.2021 2,5 5,6 0,4 94,6 0,9 4,9 289,5 0,3
05.12.2021 3,3 6,7 0,6 89,5 0,7 0,2 799,6 -0,4
06.12.2021 1,9 4,7 -0,8 92,4 0,6 0,7 1041,5 -1,6
07.12.2021 3,7 6,6 1,3 84,2 1,3 2,5 906,8 1,0
08.12.2021 3,2 4,8 1,7 92,4 0,9 0,8 378,8 1,3